createdAt,value
2019-04-20T00:00:58.509Z,3.08
2019-04-20T00:03:34.377Z,3.50
2019-04-20T00:05:57.319Z,4.05
2019-04-20T00:08:29.574Z,2.67
2019-04-20T00:11:04.162Z,3.30
2019-04-20T00:13:37.844Z,2.67
2019-04-20T00:15:56.307Z,3.45
2019-04-20T00:18:32.478Z,4.05
2019-04-20T00:21:02.571Z,2.60
2019-04-20T00:23:33.514Z,3.00
2019-04-20T00:26:16.176Z,2.52
2019-04-20T00:28:58.944Z,2.98
2019-04-20T00:31:23.575Z,2.50
2019-04-20T00:33:47.929Z,3.05
2019-04-20T00:36:07.420Z,2.80
2019-04-20T00:38:43.668Z,3.02
2019-04-20T00:41:11.715Z,2.98
2019-04-20T00:43:40.398Z,2.90
2019-04-20T00:46:19.628Z,2.72
2019-04-20T00:48:48.478Z,2.67
2019-04-20T00:51:24.083Z,2.95
2019-04-20T00:53:43.188Z,2.67
2019-04-20T00:56:08.245Z,2.90
2019-04-20T00:58:50.620Z,2.20
2019-04-20T01:01:27.751Z,3.10
2019-04-20T01:03:50.894Z,2.80
2019-04-20T01:06:26.981Z,2.70
2019-04-20T01:08:44.277Z,2.40
2019-04-20T01:11:16.727Z,2.70
2019-04-20T01:13:50.476Z,2.75
2019-04-20T01:16:24.067Z,2.75
2019-04-20T01:18:43.766Z,2.67
2019-04-20T01:21:19.435Z,2.37
2019-04-20T01:23:50.694Z,3.15
2019-04-20T01:26:17.313Z,2.52
2019-04-20T01:28:58.506Z,2.77
2019-04-20T01:31:25.434Z,1.98
2019-04-20T01:33:57.721Z,2.50
2019-04-20T01:36:36.970Z,2.40
2019-04-20T01:39:00.177Z,2.33
2019-04-20T01:41:16.130Z,2.30
2019-04-20T01:43:45.886Z,2.37
2019-04-20T01:46:18.766Z,2.47
2019-04-20T01:48:45.071Z,2.42
2019-04-20T01:51:22.831Z,2.08
2019-04-20T01:54:07.076Z,2.40
2019-04-20T01:56:36.155Z,2.30
2019-04-20T01:59:15.783Z,2.27
2019-04-20T02:01:36.208Z,2.47
2019-04-20T02:04:11.672Z,2.40
2019-04-20T02:06:44.411Z,2.20
2019-04-20T02:09:13.626Z,1.98
2019-04-20T02:11:42.953Z,2.45
2019-04-20T02:14:11.989Z,2.60
2019-04-20T02:16:47.108Z,2.55
2019-04-20T02:19:28.987Z,2.75
2019-04-20T02:21:55.474Z,2.27
2019-04-20T02:24:12.529Z,2.33
2019-04-20T02:26:41.012Z,1.98
2019-04-20T02:29:37.332Z,2.08
2019-04-20T02:32:23.689Z,1.90
2019-04-20T02:34:55.537Z,2.00
2019-04-20T02:37:36.621Z,2.22
2019-04-20T02:40:07.236Z,1.87
2019-04-20T02:42:44.787Z,2.22
2019-04-20T02:45:11.207Z,2.00
2019-04-20T02:52:38.044Z,2.10
2019-04-20T02:57:40.330Z,2.35
2019-04-20T03:00:10.394Z,1.80
2019-04-20T03:02:18.423Z,2.02
2019-04-20T03:04:43.426Z,1.80
2019-04-20T03:07:14.903Z,1.95
2019-04-20T03:09:50.139Z,1.77
2019-04-20T03:12:31.224Z,2.10
2019-04-20T03:14:47.815Z,1.95
2019-04-20T03:17:29.732Z,1.98
2019-04-20T03:19:51.253Z,2.05
2019-04-20T03:22:34.937Z,2.67
2019-04-20T03:24:59.756Z,1.90
2019-04-20T03:27:25.382Z,1.90
2019-04-20T03:29:57.825Z,1.70
2019-04-20T03:32:58.322Z,1.98
2019-04-20T03:35:12.180Z,2.30
2019-04-20T03:37:37.604Z,1.82
2019-04-20T03:39:56.781Z,1.87
2019-04-20T03:42:12.513Z,1.70
2019-04-20T03:44:50.474Z,1.80
2019-04-20T03:47:23.184Z,2.02
2019-04-20T03:50:06.282Z,1.82
2019-04-20T03:52:43.099Z,2.22
2019-04-20T03:55:16.479Z,1.92
2019-04-20T03:58:03.395Z,2.00
2019-04-20T04:00:36.257Z,1.90
2019-04-20T04:03:34.946Z,1.75
2019-04-20T04:05:55.963Z,1.90
2019-04-20T04:08:23.717Z,1.87
2019-04-20T04:11:01.493Z,1.77
2019-04-20T04:13:18.774Z,1.77
2019-04-20T04:15:55.049Z,1.67
2019-04-20T04:18:26.264Z,1.98
2019-04-20T04:20:58.658Z,1.85
2019-04-20T04:23:38.337Z,2.37
2019-04-20T04:26:08.600Z,2.05
2019-04-20T04:28:36.964Z,2.05
2019-04-20T04:33:54.638Z,1.87
2019-04-20T04:36:08.915Z,2.22
2019-04-20T04:38:41.934Z,1.98
2019-04-20T04:43:40.099Z,1.90
2019-04-20T04:45:51.669Z,1.85
2019-04-20T04:48:27.491Z,2.20
2019-04-20T04:50:59.059Z,1.70
2019-04-20T04:53:33.801Z,1.90
2019-04-20T04:55:58.544Z,2.08
2019-04-20T04:58:21.728Z,2.05
2019-04-20T05:00:51.422Z,2.33
2019-04-20T05:03:38.733Z,1.77
2019-04-20T05:06:11.706Z,1.95
2019-04-20T05:08:31.590Z,2.00
2019-04-20T05:10:54.178Z,2.50
2019-04-20T05:13:27.666Z,2.05
2019-04-20T05:16:10.992Z,2.08
2019-04-20T05:18:44.769Z,1.62
2019-04-20T05:21:18.811Z,1.95
2019-04-20T05:23:37.588Z,1.95
2019-04-20T05:26:20.403Z,1.75
2019-04-20T05:28:42.024Z,1.65
2019-04-20T05:31:03.599Z,2.67
2019-04-20T05:33:57.095Z,2.08
2019-04-20T05:36:18.542Z,2.02
2019-04-20T05:38:59.105Z,2.30
2019-04-20T05:41:20.168Z,2.12
2019-04-20T05:44:06.423Z,1.85
2019-04-20T05:46:37.253Z,2.20
2019-04-20T05:49:13.792Z,1.77
2019-04-20T05:51:41.765Z,2.15
2019-04-20T05:54:09.855Z,1.98
2019-04-20T05:56:42.400Z,2.50
2019-04-20T05:59:07.056Z,2.37
2019-04-20T06:01:47.721Z,2.05
2019-04-20T06:04:11.607Z,1.77
2019-04-20T06:06:37.698Z,2.30
2019-04-20T06:11:47.957Z,2.22
2019-04-20T06:14:04.999Z,2.00
2019-04-20T06:16:54.031Z,1.98
2019-04-20T06:19:26.071Z,2.00
2019-04-20T06:22:06.401Z,2.33
2019-04-20T06:24:39.377Z,2.30
2019-04-20T06:27:06.017Z,2.15
2019-04-20T06:29:26.338Z,1.90
2019-04-20T06:32:05.141Z,1.85
2019-04-20T06:37:00.504Z,2.08
2019-04-20T06:42:12.507Z,2.52
2019-04-20T06:44:36.845Z,2.10
2019-04-20T06:47:08.676Z,2.02
2019-04-20T06:52:25.669Z,2.02
2019-04-20T06:55:38.151Z,1.90
2019-04-20T06:57:40.352Z,2.52
2019-04-20T07:00:12.781Z,2.30
2019-04-20T07:02:41.755Z,1.85
2019-04-20T07:05:13.850Z,2.15
2019-04-20T07:07:43.226Z,2.05
2019-04-20T07:10:14.087Z,2.37
2019-04-20T07:12:37.997Z,2.00
2019-04-20T07:15:01.793Z,2.02
2019-04-20T07:20:11.589Z,1.95
2019-04-20T07:23:09.761Z,2.40
2019-04-20T07:25:19.033Z,2.12
2019-04-20T07:27:48.969Z,2.17
2019-04-20T07:30:19.627Z,2.47
2019-04-20T07:32:52.609Z,2.08
2019-04-20T07:35:23.248Z,2.20
2019-04-20T07:38:11.506Z,2.40
2019-04-20T07:40:23.195Z,2.00
2019-04-20T07:42:51.823Z,2.00
2019-04-20T07:45:27.149Z,2.33
2019-04-20T07:47:52.668Z,2.12
2019-04-20T07:50:13.210Z,2.17
2019-04-20T07:52:43.238Z,2.42
2019-04-20T07:57:46.666Z,2.12
2019-04-20T08:00:32.147Z,1.98
2019-04-20T08:03:18.451Z,2.30
2019-04-20T08:05:36.942Z,1.92
2019-04-20T08:08:10.617Z,1.90
2019-04-20T08:10:46.837Z,2.08
2019-04-20T08:15:49.485Z,2.10
2019-04-20T08:18:21.388Z,2.47
2019-04-20T08:20:45.690Z,2.10
2019-04-20T08:23:20.295Z,2.25
2019-04-20T08:25:36.135Z,2.60
2019-04-20T08:27:57.365Z,2.47
2019-04-20T08:30:57.255Z,2.60
2019-04-20T08:33:30.881Z,2.47
2019-04-20T08:36:09.274Z,3.08
2019-04-20T08:40:58.005Z,2.65
2019-04-20T08:43:43.619Z,2.87
2019-04-20T08:46:10.377Z,2.42
2019-04-20T08:48:34.423Z,2.75
2019-04-20T08:51:03.674Z,2.80
2019-04-20T08:53:50.737Z,2.70
2019-04-20T08:55:56.990Z,2.72
2019-04-20T08:58:13.758Z,4.83
2019-04-20T09:00:50.105Z,3.50
2019-04-20T09:03:19.957Z,3.70
2019-04-20T09:05:52.303Z,3.65
2019-04-20T09:08:18.907Z,3.92
2019-04-20T09:11:02.693Z,4.08
2019-04-20T09:13:25.990Z,3.95
2019-04-20T09:15:44.726Z,3.77
2019-04-20T09:18:22.861Z,4.40
2019-04-20T09:20:52.919Z,5.25
2019-04-20T09:23:31.399Z,4.85
2019-04-20T09:26:04.785Z,4.95
2019-04-20T09:28:32.289Z,6.03
2019-04-20T09:31:11.944Z,6.70
2019-04-20T09:33:51.352Z,6.60
2019-04-20T09:36:18.503Z,6.10
2019-04-20T09:39:05.940Z,4.78
2019-04-20T09:41:59.719Z,5.00
2019-04-20T09:44:13.417Z,3.67
2019-04-20T09:46:50.061Z,4.85
2019-04-20T09:49:23.683Z,6.12
2019-04-20T09:52:01.701Z,5.90
2019-04-20T09:54:31.014Z,6.85
2019-04-20T09:57:03.716Z,5.37
2019-04-20T09:59:33.130Z,5.87
2019-04-20T10:01:55.536Z,7.10
2019-04-20T10:04:17.427Z,5.85
2019-04-20T10:06:47.561Z,6.67
2019-04-20T10:09:20.400Z,5.00
2019-04-20T10:11:47.536Z,6.10
2019-04-20T10:14:16.500Z,4.92
2019-04-20T10:16:44.913Z,5.87
2019-04-20T10:19:13.659Z,5.25
2019-04-20T10:21:43.570Z,6.12
2019-04-20T10:24:12.555Z,6.65
2019-04-20T10:26:41.107Z,5.42
2019-04-20T10:29:09.935Z,5.42
2019-04-20T10:31:44.616Z,4.60
2019-04-20T10:34:09.516Z,4.42
2019-04-20T10:36:39.698Z,4.58
2019-04-20T10:39:09.056Z,3.92
2019-04-20T10:41:46.475Z,5.05
2019-04-20T10:44:09.084Z,4.65
2019-04-20T10:46:38.849Z,6.00
2019-04-20T10:49:08.301Z,9.28
2019-04-20T10:51:37.890Z,6.83
2019-04-20T10:54:06.736Z,6.17
2019-04-20T10:56:35.222Z,7.95
2019-04-20T10:59:03.827Z,6.42
2019-04-20T11:01:33.680Z,6.40
2019-04-20T11:04:03.005Z,5.42
2019-04-20T11:06:32.381Z,6.10
2019-04-20T11:09:00.862Z,4.70
2019-04-20T11:11:31.728Z,5.05
2019-04-20T11:14:06.593Z,4.60
2019-04-20T11:16:30.608Z,5.70
2019-04-20T11:18:59.182Z,4.83
2019-04-20T11:21:28.273Z,5.55
2019-04-20T11:23:56.769Z,4.90
2019-04-20T11:26:26.481Z,8.53
2019-04-20T11:28:55.895Z,18.37
2019-04-20T11:31:26.872Z,17.80
2019-04-20T11:33:54.590Z,15.32
2019-04-20T11:36:23.288Z,11.73
2019-04-20T11:38:53.046Z,22.05
2019-04-20T11:41:26.060Z,27.42
2019-04-20T11:43:53.522Z,21.55
2019-04-20T11:46:22.835Z,27.42
2019-04-20T11:48:51.848Z,19.45
2019-04-20T11:51:21.538Z,18.85
2019-04-20T11:53:50.222Z,18.15
2019-04-20T11:56:23.920Z,10.48
2019-04-20T11:58:49.220Z,8.73
2019-04-20T12:01:41.328Z,9.40
2019-04-20T12:04:22.751Z,26.10
2019-04-20T12:06:35.412Z,7.92
2019-04-20T12:09:05.632Z,7.28
2019-04-20T12:11:52.744Z,6.22
2019-04-20T12:14:04.734Z,6.05
2019-04-20T12:16:33.242Z,7.92
2019-04-20T12:19:02.236Z,9.70
2019-04-20T12:21:30.799Z,6.22
2019-04-20T12:24:00.378Z,3.85
2019-04-20T12:26:29.099Z,4.22
2019-04-20T12:28:58.004Z,4.03
2019-04-20T12:31:27.681Z,4.37
2019-04-20T12:33:56.217Z,4.62
2019-04-20T12:36:25.973Z,5.95
2019-04-20T12:38:55.029Z,3.87
2019-04-20T12:41:34.495Z,4.00
2019-04-20T12:43:53.901Z,4.05
2019-04-20T12:46:23.415Z,3.50
2019-04-20T12:48:53.537Z,4.00
2019-04-20T12:51:25.178Z,3.65
2019-04-20T12:53:52.850Z,4.50
2019-04-20T12:56:22.385Z,6.08
2019-04-20T12:58:51.620Z,7.33
2019-04-20T13:01:22.398Z,9.48
2019-04-20T13:03:50.597Z,28.42
2019-04-20T13:06:19.612Z,49.85
2019-04-20T13:08:53.424Z,49.42
2019-04-20T13:11:22.874Z,63.68
2019-04-20T13:13:56.590Z,62.23
2019-04-20T13:16:30.372Z,53.48
2019-04-20T13:19:01.511Z,50.13
2019-04-20T13:21:31.145Z,33.60
2019-04-20T13:24:00.895Z,34.35
2019-04-20T13:26:30.900Z,35.58
2019-04-20T13:28:59.529Z,33.38
2019-04-20T13:31:27.991Z,33.25
2019-04-20T13:33:57.186Z,29.60
2019-04-20T13:36:26.219Z,26.02
2019-04-20T13:38:54.793Z,22.17
2019-04-20T13:41:24.601Z,22.45
2019-04-20T13:43:55.814Z,18.95
2019-04-20T13:46:24.626Z,15.85
2019-04-20T13:48:53.458Z,14.03
2019-04-20T13:51:23.034Z,15.38
2019-04-20T13:53:53.122Z,12.75
2019-04-20T13:56:23.790Z,11.80
2019-04-20T13:58:59.866Z,11.10
2019-04-20T14:01:35.762Z,12.65
2019-04-20T14:04:08.211Z,11.57
2019-04-20T14:06:37.353Z,12.07
2019-04-20T14:09:09.627Z,10.70
2019-04-20T14:11:39.186Z,12.05
2019-04-20T14:14:08.361Z,14.33
2019-04-20T14:16:37.061Z,12.10
2019-04-20T14:19:05.594Z,14.55
2019-04-20T14:21:34.333Z,13.20
2019-04-20T14:24:04.205Z,12.45
2019-04-20T14:26:35.721Z,13.48
2019-04-20T14:29:03.544Z,12.40
2019-04-20T14:31:32.170Z,13.90
2019-04-20T14:34:00.764Z,11.83
2019-04-20T14:36:29.227Z,12.93
2019-04-20T14:38:58.280Z,13.30
2019-04-20T14:41:26.780Z,11.80
2019-04-20T14:43:55.384Z,12.55
2019-04-20T14:46:26.210Z,10.88
2019-04-20T14:48:54.593Z,12.20
2019-04-20T14:51:23.795Z,10.80
2019-04-20T14:53:53.667Z,9.65
2019-04-20T14:56:23.404Z,10.05
2019-04-20T14:58:53.708Z,8.95
2019-04-20T15:01:24.714Z,8.45
2019-04-20T15:03:59.879Z,10.23
2019-04-20T15:06:23.531Z,9.58
2019-04-20T15:08:52.564Z,8.58
2019-04-20T15:11:21.220Z,8.90
2019-04-20T15:13:50.881Z,9.78
2019-04-20T15:16:32.729Z,10.13
2019-04-20T15:19:03.174Z,11.12
2019-04-20T15:21:33.529Z,11.53
2019-04-20T15:24:02.040Z,10.93
2019-04-20T15:26:30.813Z,11.68
2019-04-20T15:29:00.001Z,10.50
2019-04-20T15:31:28.511Z,11.18
2019-04-20T15:33:57.104Z,11.73
2019-04-20T15:36:26.275Z,8.75
2019-04-20T15:38:54.678Z,7.03
2019-04-20T15:41:23.204Z,5.78
2019-04-20T15:43:51.683Z,6.75
2019-04-20T15:46:21.337Z,5.40
2019-04-20T15:48:50.272Z,4.80
2019-04-20T15:51:19.470Z,5.60
2019-04-20T15:53:49.522Z,5.62
2019-04-20T15:56:18.652Z,4.42
2019-04-20T15:58:48.393Z,4.22
2019-04-20T16:01:18.559Z,4.67
2019-04-20T16:03:48.673Z,4.55
2019-04-20T16:06:17.213Z,5.08
2019-04-20T16:08:48.204Z,4.47
2019-04-20T16:11:17.333Z,4.67
2019-04-20T16:13:49.982Z,5.60
2019-04-20T16:16:16.323Z,4.95
2019-04-20T16:18:45.227Z,5.58
2019-04-20T16:21:20.867Z,4.65
2019-04-20T16:23:48.429Z,4.37
2019-04-20T16:26:19.825Z,4.70
2019-04-20T16:28:48.261Z,5.20
2019-04-20T16:31:18.193Z,4.30
2019-04-20T16:33:46.963Z,4.40
2019-04-20T16:36:16.516Z,4.50
2019-04-20T16:38:45.590Z,4.08
2019-04-20T16:41:14.636Z,4.12
2019-04-20T16:43:45.986Z,4.62
2019-04-20T16:46:13.428Z,4.58
2019-04-20T16:48:42.184Z,4.50
2019-04-20T16:51:11.017Z,4.12
2019-04-20T16:53:39.669Z,4.53
2019-04-20T16:56:08.624Z,4.05
2019-04-20T16:58:37.902Z,4.50
2019-04-20T17:01:07.671Z,4.40
2019-04-20T17:03:48.872Z,4.58
2019-04-20T17:06:06.767Z,4.55
2019-04-20T17:08:36.556Z,4.50
2019-04-20T17:11:05.620Z,4.62
2019-04-20T17:13:40.488Z,4.45
2019-04-20T17:16:05.836Z,4.58
2019-04-20T17:18:34.513Z,4.10
2019-04-20T17:21:05.869Z,4.10
2019-04-20T17:23:33.384Z,4.00
2019-04-20T17:26:03.992Z,4.28
2019-04-20T17:28:52.454Z,4.42
2019-04-20T17:31:25.253Z,4.00
2019-04-20T17:34:06.598Z,4.20
2019-04-20T17:36:30.785Z,4.12
2019-04-20T17:38:59.761Z,3.83
2019-04-20T17:41:46.985Z,4.78
2019-04-20T17:44:14.225Z,4.03
2019-04-20T17:46:39.153Z,4.20
2019-04-20T17:49:13.625Z,3.98
2019-04-20T17:51:54.917Z,3.60
2019-04-20T17:54:07.124Z,3.70
2019-04-20T17:56:36.248Z,3.87
2019-04-20T17:59:06.126Z,3.67
2019-04-20T18:02:06.670Z,3.60
2019-04-20T18:04:53.769Z,4.00
2019-04-20T18:07:09.743Z,3.98
2019-04-20T18:09:54.523Z,3.70
2019-04-20T18:12:03.332Z,3.75
2019-04-20T18:14:43.159Z,3.75
2019-04-20T18:17:15.041Z,3.45
2019-04-20T18:19:34.926Z,3.37
2019-04-20T18:22:07.970Z,3.70
2019-04-20T18:25:02.601Z,3.80
2019-04-20T18:27:27.938Z,4.00
2019-04-20T18:29:54.506Z,3.95
2019-04-20T18:32:25.357Z,3.75
2019-04-20T18:35:00.870Z,3.45
2019-04-20T18:37:27.449Z,4.00
2019-04-20T18:40:03.109Z,4.12
2019-04-20T18:42:31.264Z,3.62
2019-04-20T18:45:12.429Z,3.45
2019-04-20T18:47:48.090Z,3.08
2019-04-20T18:50:07.400Z,3.40
2019-04-20T18:52:27.543Z,3.60
2019-04-20T18:54:57.510Z,3.30
2019-04-20T18:57:29.282Z,3.67
2019-04-20T18:59:58.451Z,3.37
2019-04-20T19:02:31.178Z,3.50
2019-04-20T19:04:58.587Z,4.47
2019-04-20T19:07:27.974Z,3.35
2019-04-20T19:10:05.750Z,3.30
2019-04-20T19:12:41.254Z,3.58
2019-04-20T19:15:28.022Z,3.62
2019-04-20T19:17:49.705Z,3.50
2019-04-20T19:20:20.220Z,3.30
2019-04-20T19:22:50.074Z,3.05
2019-04-20T19:25:27.159Z,3.27
2019-04-20T19:27:53.926Z,2.98
2019-04-20T19:30:31.543Z,3.40
2019-04-20T19:33:09.203Z,3.42
2019-04-20T19:35:33.959Z,3.40
2019-04-20T19:38:03.305Z,3.85
2019-04-20T19:40:33.745Z,3.33
2019-04-20T19:43:02.393Z,3.67
2019-04-20T19:45:56.915Z,3.25
2019-04-20T19:48:09.330Z,3.80
2019-04-20T19:50:46.561Z,3.35
2019-04-20T19:53:16.453Z,3.25
2019-04-20T19:55:37.812Z,3.45
2019-04-20T19:58:09.746Z,3.75
2019-04-20T20:00:25.231Z,3.20
2019-04-20T20:02:54.164Z,3.22
2019-04-20T20:05:28.956Z,2.90
2019-04-20T20:08:03.541Z,3.47
2019-04-20T20:10:27.973Z,3.15
2019-04-20T20:13:00.283Z,3.65
2019-04-20T20:15:29.652Z,2.85
2019-04-20T20:18:12.426Z,2.92
2019-04-20T20:20:45.583Z,3.30
2019-04-20T20:22:57.305Z,3.10
2019-04-20T20:25:29.608Z,3.05
2019-04-20T20:27:58.493Z,3.42
2019-04-20T20:30:33.163Z,3.37
2019-04-20T20:33:13.843Z,3.17
2019-04-20T20:35:28.674Z,3.33
2019-04-20T20:37:57.831Z,3.22
2019-04-20T20:40:32.289Z,3.60
2019-04-20T20:43:07.312Z,3.08
2019-04-20T20:45:33.679Z,2.85
2019-04-20T20:48:15.829Z,3.12
2019-04-20T20:50:48.880Z,3.35
2019-04-20T20:53:05.116Z,2.72
2019-04-20T20:55:34.451Z,2.83
2019-04-20T20:58:06.512Z,3.27
2019-04-20T21:00:41.891Z,2.98
2019-04-20T21:03:02.762Z,3.50
2019-04-20T21:05:27.642Z,3.15
2019-04-20T21:07:57.415Z,3.10
2019-04-20T21:10:34.500Z,3.52
2019-04-20T21:13:01.084Z,2.87
2019-04-20T21:15:28.123Z,3.05
2019-04-20T21:18:20.956Z,3.40
2019-04-20T21:20:47.910Z,3.62
2019-04-20T21:23:13.902Z,3.10
2019-04-20T21:25:34.606Z,3.20
2019-04-20T21:28:02.585Z,3.37
2019-04-20T21:30:38.044Z,3.15
2019-04-20T21:33:03.642Z,3.35
2019-04-20T21:35:37.991Z,3.85
2019-04-20T21:38:06.594Z,3.10
2019-04-20T21:40:39.369Z,3.20
2019-04-20T21:43:06.983Z,3.12
2019-04-20T21:45:36.093Z,2.92
2019-04-20T21:48:09.637Z,3.08
2019-04-20T21:50:53.521Z,3.25
2019-04-20T21:53:11.885Z,3.17
2019-04-20T21:55:34.200Z,3.12
2019-04-20T21:58:05.344Z,3.12
2019-04-20T22:00:42.514Z,3.15
2019-04-20T22:03:11.305Z,2.87
2019-04-20T22:05:38.208Z,2.70
2019-04-20T22:08:10.574Z,3.10
2019-04-20T22:10:36.925Z,2.62
2019-04-20T22:13:06.276Z,3.12
2019-04-20T22:15:40.699Z,2.95
2019-04-20T22:18:09.698Z,3.00
2019-04-20T22:20:49.434Z,3.10
2019-04-20T22:23:15.938Z,3.05
2019-04-20T22:25:52.854Z,2.90
2019-04-20T22:28:06.998Z,2.85
2019-04-20T22:30:35.984Z,3.30
2019-04-20T22:33:06.203Z,3.00
2019-04-20T22:35:36.069Z,2.70
2019-04-20T22:38:10.527Z,2.80
2019-04-20T22:40:37.066Z,3.10
2019-04-20T22:43:06.374Z,2.85
2019-04-20T22:45:42.184Z,3.10
2019-04-20T22:48:09.046Z,2.92
2019-04-20T22:50:51.319Z,2.90
2019-04-20T22:53:22.685Z,3.00
2019-04-20T22:56:04.398Z,3.05
2019-04-20T22:58:23.659Z,2.70
2019-04-20T23:00:46.749Z,3.08
2019-04-20T23:03:07.177Z,2.95
2019-04-20T23:05:36.569Z,3.30
2019-04-20T23:08:06.593Z,3.05
2019-04-20T23:10:39.993Z,3.12
2019-04-20T23:13:07.309Z,3.17
2019-04-20T23:15:36.323Z,3.05
2019-04-20T23:18:06.230Z,3.37
2019-04-20T23:20:38.720Z,3.27
2019-04-20T23:23:05.058Z,3.42
2019-04-20T23:25:33.631Z,3.30
2019-04-20T23:28:08.181Z,3.17
2019-04-20T23:30:37.483Z,3.20
2019-04-20T23:33:02.495Z,2.60
2019-04-20T23:35:31.803Z,3.00
2019-04-20T23:38:07.580Z,2.98
2019-04-20T23:40:31.926Z,3.00
2019-04-20T23:43:02.115Z,3.00
2019-04-20T23:45:43.857Z,3.17
2019-04-20T23:48:30.499Z,3.20
2019-04-20T23:51:10.271Z,3.12
2019-04-20T23:53:40.258Z,2.72
2019-04-20T23:55:57.595Z,2.80
2019-04-20T23:58:26.473Z,2.70
